createdAt,value
2023-03-22T00:02:11.514Z,7.70
2023-03-22T00:04:38.174Z,7.40
2023-03-22T00:07:18.473Z,7.05
2023-03-22T00:09:51.609Z,7.40
2023-03-22T00:12:25.422Z,7.10
2023-03-22T00:14:58.507Z,7.05
2023-03-22T00:17:26.168Z,7.35
2023-03-22T00:20:01.485Z,7.28
2023-03-22T00:22:28.049Z,6.93
2023-03-22T00:25:01.446Z,7.13
2023-03-22T00:27:28.000Z,6.63
2023-03-22T00:30:01.463Z,7.03
2023-03-22T00:32:28.163Z,7.05
2023-03-22T00:35:01.522Z,6.80
2023-03-22T00:37:40.463Z,7.07
2023-03-22T00:40:18.520Z,7.88
2023-03-22T00:42:51.506Z,6.57
2023-03-22T00:45:24.526Z,7.45
2023-03-22T00:47:51.335Z,7.32
2023-03-22T00:50:24.452Z,7.63
2023-03-22T00:52:51.245Z,7.85
2023-03-22T00:55:24.468Z,7.35
2023-03-22T00:57:57.441Z,6.78
2023-03-22T01:00:24.352Z,7.15
2023-03-22T01:02:59.540Z,6.53
2023-03-22T01:05:28.363Z,6.50
2023-03-22T01:08:01.547Z,5.60
2023-03-22T01:10:42.533Z,6.68
2023-03-22T01:13:18.063Z,6.53
2023-03-22T01:15:51.595Z,6.15
2023-03-22T01:18:25.440Z,5.85
2023-03-22T01:20:52.220Z,5.82
2023-03-22T01:23:25.464Z,6.13
2023-03-22T01:25:52.215Z,6.40
2023-03-22T01:28:18.805Z,5.80
2023-03-22T01:30:51.652Z,6.72
2023-03-22T01:33:18.426Z,6.20
2023-03-22T01:35:51.621Z,6.45
2023-03-22T01:38:18.319Z,6.20
2023-03-22T01:40:51.603Z,6.47
2023-03-22T01:43:24.532Z,6.05
2023-03-22T01:45:52.833Z,5.50
2023-03-22T01:48:42.561Z,6.40
2023-03-22T01:51:20.542Z,6.63
2023-03-22T01:53:57.529Z,6.22
2023-03-22T01:56:33.547Z,6.90
2023-03-22T01:59:01.229Z,6.03
2023-03-22T02:01:28.418Z,5.65
2023-03-22T02:04:19.519Z,6.00
2023-03-22T02:06:54.509Z,6.07
2023-03-22T02:09:29.953Z,6.28
2023-03-22T02:12:24.526Z,6.82
2023-03-22T02:15:13.010Z,6.00
2023-03-22T02:18:06.519Z,6.00
2023-03-22T02:21:12.898Z,5.75
2023-03-22T02:24:16.549Z,6.13
2023-03-22T02:27:11.562Z,5.65
2023-03-22T02:29:56.642Z,5.82
2023-03-22T02:33:12.573Z,5.90
2023-03-22T02:36:00.523Z,5.28
2023-03-22T02:38:49.070Z,5.47
2023-03-22T02:41:34.569Z,5.95
2023-03-22T02:44:18.612Z,5.97
2023-03-22T02:47:14.502Z,5.80
2023-03-22T02:49:56.608Z,5.30
2023-03-22T02:52:40.552Z,5.70
2023-03-22T02:55:30.474Z,5.95
2023-03-22T02:58:06.887Z,6.28
2023-03-22T03:00:42.893Z,6.15
2023-03-22T03:03:21.595Z,5.78
2023-03-22T03:05:55.007Z,5.38
2023-03-22T03:08:42.556Z,6.22
2023-03-22T03:11:10.204Z,5.80
2023-03-22T03:13:43.582Z,6.13
2023-03-22T03:16:13.399Z,5.80
2023-03-22T03:18:57.544Z,6.78
2023-03-22T03:21:54.487Z,6.95
2023-03-22T03:24:36.526Z,6.68
2023-03-22T03:27:20.503Z,7.43
2023-03-22T03:30:08.547Z,7.45
2023-03-22T03:32:42.079Z,7.97
2023-03-22T03:35:28.575Z,7.90
2023-03-22T03:38:16.567Z,7.95
2023-03-22T03:40:54.525Z,8.40
2023-03-22T03:43:22.991Z,8.80
2023-03-22T03:45:51.985Z,8.27
2023-03-22T03:48:28.534Z,7.63
2023-03-22T03:50:57.541Z,8.98
2023-03-22T03:53:30.570Z,9.13
2023-03-22T03:56:03.586Z,9.65
2023-03-22T03:58:37.549Z,8.32
2023-03-22T04:01:04.307Z,9.80
2023-03-22T04:03:38.548Z,9.63
2023-03-22T04:06:05.690Z,10.73
2023-03-22T04:08:45.651Z,11.07
2023-03-22T04:11:18.671Z,10.18
2023-03-22T04:13:51.700Z,9.13
2023-03-22T04:16:18.372Z,9.75
2023-03-22T04:18:44.963Z,10.35
2023-03-22T04:21:18.623Z,10.02
2023-03-22T04:23:46.915Z,10.40
2023-03-22T04:26:20.634Z,10.18
2023-03-22T04:28:47.279Z,10.38
2023-03-22T04:31:20.664Z,10.38
2023-03-22T04:33:47.418Z,9.45
2023-03-22T04:36:24.544Z,11.02
2023-03-22T04:38:52.014Z,10.20
2023-03-22T04:41:25.588Z,11.15
2023-03-22T04:43:52.299Z,9.80
2023-03-22T04:46:27.693Z,9.93
2023-03-22T04:48:54.332Z,9.23
2023-03-22T04:51:27.612Z,10.63
2023-03-22T04:53:54.812Z,8.80
2023-03-22T04:56:28.650Z,9.20
2023-03-22T04:58:55.454Z,9.00
2023-03-22T05:01:22.150Z,9.70
2023-03-22T05:03:55.553Z,7.57
2023-03-22T05:06:22.487Z,9.10
2023-03-22T05:08:55.576Z,7.78
2023-03-22T05:11:24.291Z,8.70
2023-03-22T05:13:57.632Z,8.23
2023-03-22T05:16:25.411Z,8.50
2023-03-22T05:18:54.826Z,7.80
2023-03-22T05:21:34.604Z,7.60
2023-03-22T05:24:07.607Z,7.53
2023-03-22T05:26:38.127Z,7.43
2023-03-22T05:29:11.586Z,7.95
2023-03-22T05:31:44.584Z,7.28
2023-03-22T05:34:11.243Z,7.68
2023-03-22T05:36:44.602Z,6.88
2023-03-22T05:39:11.345Z,7.72
2023-03-22T05:41:44.589Z,7.03
2023-03-22T05:44:11.255Z,6.45
2023-03-22T05:46:44.605Z,7.20
2023-03-22T05:49:12.249Z,6.90
2023-03-22T05:51:48.623Z,6.70
2023-03-22T05:54:15.470Z,5.80
2023-03-22T05:56:48.643Z,6.57
2023-03-22T05:59:15.220Z,6.35
2023-03-22T06:01:48.710Z,6.15
2023-03-22T06:04:15.567Z,5.88
2023-03-22T06:06:48.691Z,5.93
2023-03-22T06:09:35.597Z,6.18
2023-03-22T06:12:08.634Z,5.47
2023-03-22T06:14:35.362Z,4.90
2023-03-22T06:17:08.677Z,6.05
2023-03-22T06:19:41.654Z,5.05
2023-03-22T06:22:08.483Z,5.13
2023-03-22T06:24:41.640Z,5.18
2023-03-22T06:27:15.694Z,4.90
2023-03-22T06:29:42.268Z,5.60
2023-03-22T06:32:08.875Z,4.68
2023-03-22T06:34:41.717Z,5.25
2023-03-22T06:37:14.627Z,4.45
2023-03-22T06:39:47.673Z,4.20
2023-03-22T06:42:14.420Z,4.35
2023-03-22T06:44:50.721Z,4.63
2023-03-22T06:47:17.316Z,4.47
2023-03-22T06:49:50.667Z,4.57
2023-03-22T06:52:17.230Z,4.47
2023-03-22T06:54:50.606Z,4.10
2023-03-22T06:57:46.631Z,4.65
2023-03-22T07:00:20.689Z,4.03
2023-03-22T07:02:47.297Z,4.28
2023-03-22T07:05:20.735Z,4.13
2023-03-22T07:08:07.650Z,3.83
2023-03-22T07:10:40.866Z,3.92
2023-03-22T07:13:07.661Z,3.80
2023-03-22T07:15:41.715Z,3.53
2023-03-22T07:18:14.690Z,4.10
2023-03-22T07:20:42.607Z,4.55
2023-03-22T07:23:17.729Z,3.92
2023-03-22T07:25:45.457Z,3.53
2023-03-22T07:28:18.737Z,3.30
2023-03-22T07:30:45.331Z,3.63
2023-03-22T07:33:11.931Z,3.72
2023-03-22T07:35:46.701Z,3.63
2023-03-22T07:38:19.651Z,3.10
2023-03-22T07:40:46.481Z,3.45
2023-03-22T07:43:19.661Z,3.00
2023-03-22T07:45:46.541Z,3.38
2023-03-22T07:48:21.825Z,3.85
2023-03-22T07:50:49.363Z,3.10
2023-03-22T07:53:22.730Z,3.28
2023-03-22T07:56:02.797Z,2.58
2023-03-22T07:58:29.480Z,2.88
2023-03-22T08:01:02.823Z,2.75
2023-03-22T08:03:30.036Z,3.55
2023-03-22T08:06:05.726Z,3.25
2023-03-22T08:08:52.780Z,3.10
2023-03-22T08:11:25.697Z,3.22
2023-03-22T08:13:52.487Z,3.60
2023-03-22T08:16:25.777Z,3.45
2023-03-22T08:18:52.495Z,3.10
2023-03-22T08:21:25.715Z,3.08
2023-03-22T08:23:52.440Z,3.30
2023-03-22T08:26:25.692Z,3.17
2023-03-22T08:28:58.745Z,2.85
2023-03-22T08:31:32.805Z,3.10
2023-03-22T08:33:59.533Z,3.08
2023-03-22T08:36:32.715Z,2.97
2023-03-22T08:38:59.523Z,2.78
2023-03-22T08:41:32.810Z,3.50
2023-03-22T08:44:05.765Z,3.13
2023-03-22T08:46:32.497Z,3.25
2023-03-22T08:49:07.738Z,2.80
2023-03-22T08:51:34.477Z,3.10
2023-03-22T08:54:08.709Z,2.88
2023-03-22T08:56:38.392Z,3.75
2023-03-22T08:59:13.780Z,3.60
2023-03-22T09:01:40.659Z,3.00
2023-03-22T09:04:13.822Z,3.58
2023-03-22T09:06:43.001Z,3.42
2023-03-22T09:09:22.773Z,3.42
2023-03-22T09:11:49.323Z,3.42
2023-03-22T09:14:22.721Z,3.78
2023-03-22T09:16:49.325Z,3.05
2023-03-22T09:19:22.677Z,3.70
2023-03-22T09:21:50.222Z,3.05
2023-03-22T09:24:23.778Z,3.50
2023-03-22T09:26:56.747Z,3.13
2023-03-22T09:29:23.354Z,3.85
2023-03-22T09:31:56.779Z,3.40
2023-03-22T09:34:23.332Z,3.08
2023-03-22T09:36:58.504Z,2.85
2023-03-22T09:39:25.247Z,3.15
2023-03-22T09:42:02.742Z,3.30
2023-03-22T09:44:34.610Z,3.17
2023-03-22T09:47:10.783Z,3.05
2023-03-22T09:49:53.727Z,2.80
2023-03-22T09:52:21.843Z,3.22
2023-03-22T09:54:55.771Z,3.40
2023-03-22T09:57:43.925Z,11.40
2023-03-22T10:00:42.776Z,3.47
2023-03-22T10:03:43.793Z,2.85
2023-03-22T10:06:10.392Z,2.83
2023-03-22T10:09:20.766Z,3.35
2023-03-22T10:12:07.831Z,2.85
2023-03-22T10:14:47.785Z,3.05
2023-03-22T10:17:25.668Z,3.40
2023-03-22T10:20:07.798Z,3.65
2023-03-22T10:22:51.624Z,2.70
2023-03-22T10:25:30.736Z,2.85
2023-03-22T10:28:03.744Z,3.25
2023-03-22T10:30:44.813Z,2.83
2023-03-22T10:33:32.798Z,3.30
2023-03-22T10:36:07.816Z,2.78
2023-03-22T10:38:48.812Z,3.13
2023-03-22T10:41:18.779Z,3.20
2023-03-22T10:43:56.803Z,3.20
2023-03-22T10:46:33.829Z,3.17
2023-03-22T10:49:01.825Z,2.90
2023-03-22T10:51:40.753Z,3.00
2023-03-22T10:54:13.565Z,3.03
2023-03-22T10:56:46.742Z,2.50
2023-03-22T10:59:41.967Z,2.83
2023-03-22T11:02:36.884Z,2.97
2023-03-22T11:05:07.199Z,2.97
2023-03-22T11:07:41.744Z,2.53
2023-03-22T11:10:33.829Z,2.60
2023-03-22T11:13:15.839Z,2.33
2023-03-22T11:15:51.829Z,2.90
2023-03-22T11:18:25.905Z,3.05
2023-03-22T11:21:04.635Z,2.83
2023-03-22T11:23:40.804Z,2.47
2023-03-22T11:26:17.809Z,2.72
2023-03-22T11:28:57.783Z,2.83
2023-03-22T11:31:26.114Z,2.40
2023-03-22T11:34:04.824Z,2.88
2023-03-22T11:36:31.463Z,3.33
2023-03-22T11:39:06.890Z,2.90
2023-03-22T11:41:43.806Z,2.72
2023-03-22T11:44:14.465Z,3.20
2023-03-22T11:46:56.827Z,3.00
2023-03-22T11:49:33.863Z,2.80
2023-03-22T11:52:16.935Z,2.60
2023-03-22T11:54:52.855Z,2.72
2023-03-22T11:57:31.928Z,3.13
2023-03-22T12:00:20.097Z,2.95
2023-03-22T12:03:12.935Z,2.65
2023-03-22T12:05:51.035Z,3.17
2023-03-22T12:09:02.857Z,2.63
2023-03-22T12:11:55.796Z,3.00
2023-03-22T12:14:34.700Z,2.70
2023-03-22T12:17:23.814Z,3.20
2023-03-22T12:20:04.851Z,2.75
2023-03-22T12:22:43.799Z,2.47
2023-03-22T12:25:25.822Z,3.42
2023-03-22T12:27:59.391Z,2.30
2023-03-22T12:30:42.643Z,2.70
2023-03-22T12:33:23.148Z,2.13
2023-03-22T12:36:01.993Z,2.28
2023-03-22T12:38:44.814Z,2.55
2023-03-22T12:41:22.864Z,2.05
2023-03-22T12:43:56.061Z,2.35
2023-03-22T12:46:31.903Z,2.47
2023-03-22T12:49:11.749Z,2.58
2023-03-22T12:51:44.815Z,2.72
2023-03-22T12:54:14.169Z,2.20
2023-03-22T12:56:51.830Z,2.58
2023-03-22T12:59:29.905Z,2.50
2023-03-22T13:02:23.855Z,2.90
2023-03-22T13:04:54.517Z,2.50
2023-03-22T13:07:58.892Z,2.42
2023-03-22T13:10:45.946Z,2.33
2023-03-22T13:13:21.873Z,2.63
2023-03-22T13:16:19.916Z,2.80
2023-03-22T13:18:55.894Z,2.47
2023-03-22T13:21:32.915Z,2.60
2023-03-22T13:24:21.896Z,2.70
2023-03-22T13:26:58.598Z,2.72
2023-03-22T13:29:44.889Z,2.40
2023-03-22T13:32:30.535Z,2.45
2023-03-22T13:35:03.953Z,2.50
2023-03-22T13:37:37.647Z,2.50
2023-03-22T13:40:36.844Z,2.60
2023-03-22T13:43:27.848Z,2.63
2023-03-22T13:46:09.738Z,2.97
2023-03-22T13:48:54.930Z,3.25
2023-03-22T13:51:25.786Z,2.60
2023-03-22T13:54:07.864Z,2.85
2023-03-22T13:56:53.022Z,2.40
2023-03-22T13:59:37.885Z,2.50
2023-03-22T14:02:31.037Z,2.58
2023-03-22T14:05:03.947Z,2.58
2023-03-22T14:07:53.217Z,2.42
2023-03-22T14:10:34.854Z,3.38
2023-03-22T14:13:17.920Z,2.70
2023-03-22T14:16:04.044Z,2.92
2023-03-22T14:18:32.753Z,3.47
2023-03-22T14:21:28.020Z,3.05
2023-03-22T14:52:43.086Z,3.33
2023-03-22T14:55:18.362Z,3.47
2023-03-22T14:58:03.062Z,3.17
2023-03-22T15:00:31.511Z,3.17
2023-03-22T15:03:12.985Z,3.40
2023-03-22T15:05:43.280Z,3.10
2023-03-22T15:08:32.236Z,3.28
2023-03-22T15:11:16.103Z,3.00
2023-03-22T15:13:51.692Z,3.00
2023-03-22T15:16:23.319Z,3.20
2023-03-22T15:19:02.133Z,3.20
2023-03-22T15:21:31.750Z,3.22
2023-03-22T15:26:59.189Z,2.67
2023-03-22T15:29:35.166Z,2.72
2023-03-22T15:32:13.358Z,2.90
2023-03-22T15:37:49.702Z,3.10
2023-03-22T15:40:49.234Z,2.47
2023-03-22T15:43:38.166Z,2.55
2023-03-22T15:46:19.775Z,3.22
2023-03-22T15:49:12.191Z,2.70
2023-03-22T15:51:49.154Z,2.60
2023-03-22T15:54:35.121Z,2.90
2023-03-22T15:58:04.617Z,3.03
2023-03-22T16:03:49.299Z,2.58
2023-03-22T16:06:17.398Z,2.95
2023-03-22T16:08:51.214Z,3.25
2023-03-22T16:11:21.329Z,2.88
2023-03-22T16:13:55.314Z,3.03
2023-03-22T16:16:35.695Z,2.78
2023-03-22T16:19:18.975Z,3.08
2023-03-22T16:21:46.480Z,3.08
2023-03-22T16:24:20.090Z,3.05
2023-03-22T16:27:11.215Z,3.15
2023-03-22T16:29:45.095Z,2.70
2023-03-22T16:32:29.562Z,2.65
2023-03-22T16:35:06.393Z,2.85
2023-03-22T16:37:42.191Z,2.47
2023-03-22T16:40:22.546Z,3.05
2023-03-22T16:42:53.047Z,3.05
2023-03-22T16:45:35.124Z,3.65
2023-03-22T16:48:02.740Z,2.88
2023-03-22T16:50:42.380Z,2.90
2023-03-22T16:53:28.414Z,3.10
2023-03-22T16:56:04.191Z,3.17
2023-03-22T16:58:34.240Z,3.25
2023-03-22T17:01:10.154Z,3.25
2023-03-22T17:03:37.661Z,2.97
2023-03-22T17:06:17.236Z,3.20
2023-03-22T17:08:51.238Z,3.40
2023-03-22T17:11:28.360Z,3.60
2023-03-22T17:14:11.368Z,3.60
2023-03-22T17:16:48.313Z,2.88
2023-03-22T17:19:19.573Z,3.33
2023-03-22T17:21:53.349Z,3.45
2023-03-22T17:24:28.231Z,3.58
2023-03-22T17:27:15.271Z,3.47
2023-03-22T17:29:51.763Z,3.42
2023-03-22T17:32:39.492Z,3.53
2023-03-22T17:35:17.220Z,3.80
2023-03-22T17:37:49.344Z,3.63
2023-03-22T17:43:42.378Z,3.95
2023-03-22T17:46:52.371Z,3.92
2023-03-22T17:49:04.163Z,3.70
2023-03-22T17:51:40.161Z,4.10
2023-03-22T17:54:48.886Z,4.35
2023-03-22T17:57:34.784Z,3.70
2023-03-22T17:59:57.847Z,4.20
2023-03-22T18:02:38.567Z,4.00
2023-03-22T18:08:24.595Z,3.85
2023-03-22T18:10:49.687Z,3.92
2023-03-22T18:13:25.418Z,4.15
2023-03-22T18:15:55.441Z,4.50
2023-03-22T18:18:31.297Z,4.00
2023-03-22T18:21:10.266Z,4.18
2023-03-22T18:23:48.359Z,4.15
2023-03-22T18:26:29.625Z,3.60
2023-03-22T18:29:05.312Z,3.88
2023-03-22T18:31:35.741Z,4.07
2023-03-22T18:34:10.292Z,3.33
2023-03-22T18:36:45.225Z,3.63
2023-03-22T18:40:04.603Z,3.70
2023-03-22T18:42:19.388Z,4.28
2023-03-22T18:44:55.307Z,3.72
2023-03-22T18:47:22.884Z,3.85
2023-03-22T18:50:02.283Z,4.00
2023-03-22T18:52:48.927Z,3.75
2023-03-22T18:55:29.968Z,3.65
2023-03-22T18:58:10.188Z,3.78
2023-03-22T19:00:46.247Z,3.38
2023-03-22T19:03:13.854Z,3.85
2023-03-22T19:05:48.930Z,3.47
2023-03-22T19:08:27.889Z,3.83
2023-03-22T19:19:21.960Z,3.67
2023-03-22T19:22:40.846Z,3.85
2023-03-22T19:43:41.094Z,4.13
2023-03-22T19:46:08.988Z,4.95
2023-03-22T19:48:43.680Z,4.50
2023-03-22T19:51:11.081Z,4.03
2023-03-22T19:54:18.643Z,4.15
2023-03-22T19:56:41.610Z,4.63
2023-03-22T19:59:17.002Z,4.40
2023-03-22T20:01:45.025Z,3.92
2023-03-22T20:04:19.509Z,4.90
2023-03-22T20:06:55.108Z,4.70
2023-03-22T20:09:29.362Z,5.30
2023-03-22T20:12:03.368Z,4.60
2023-03-22T20:14:37.502Z,5.10
2023-03-22T20:17:06.913Z,5.55
2023-03-22T20:19:43.196Z,5.28
2023-03-22T20:22:16.425Z,5.03
2023-03-22T20:24:44.109Z,5.35
2023-03-22T20:27:18.306Z,4.85
2023-03-22T20:29:45.222Z,5.45
2023-03-22T20:32:19.299Z,4.72
2023-03-22T20:34:46.298Z,5.65
2023-03-22T20:37:29.512Z,5.13
2023-03-22T20:39:56.784Z,5.30
2023-03-22T20:42:38.368Z,5.30
2023-03-22T20:45:12.543Z,5.38
2023-03-22T20:47:46.394Z,6.35
2023-03-22T20:50:21.241Z,6.47
2023-03-22T20:52:48.433Z,6.82
2023-03-22T20:55:25.204Z,5.90
2023-03-22T20:57:53.012Z,6.60
2023-03-22T21:00:28.385Z,7.40
2023-03-22T21:02:56.478Z,6.53
2023-03-22T21:05:30.240Z,7.03
2023-03-22T21:07:57.527Z,7.15
2023-03-22T21:10:31.289Z,7.25
2023-03-22T21:12:58.013Z,7.38
2023-03-22T21:15:31.214Z,7.70
2023-03-22T21:18:05.250Z,8.18
2023-03-22T21:20:39.322Z,7.88
2023-03-22T21:23:06.053Z,8.30
2023-03-22T21:25:33.057Z,8.30
2023-03-22T21:28:06.261Z,8.55
2023-03-22T21:30:34.217Z,9.15
2023-03-22T21:33:08.268Z,7.85
2023-03-22T21:35:35.933Z,8.02
2023-03-22T21:38:10.766Z,7.43
2023-03-22T21:40:38.271Z,8.05
2023-03-22T21:43:25.495Z,8.00
2023-03-22T21:46:11.007Z,7.93
2023-03-22T21:48:57.411Z,8.30
2023-03-22T21:51:28.874Z,8.05
2023-03-22T21:54:03.327Z,8.38
2023-03-22T21:56:38.631Z,7.07
2023-03-22T21:59:08.350Z,7.90
2023-03-22T22:01:45.898Z,7.88
2023-03-22T22:04:20.323Z,7.28
2023-03-22T22:06:54.748Z,7.93
2023-03-22T22:09:29.528Z,8.82
2023-03-22T22:12:03.640Z,6.05
2023-03-22T22:14:31.925Z,7.00
2023-03-22T22:17:05.408Z,8.00
2023-03-22T22:19:32.740Z,7.70
2023-03-22T22:22:07.340Z,7.15
2023-03-22T22:24:42.201Z,7.57
2023-03-22T22:27:16.509Z,7.03
2023-03-22T22:29:43.744Z,7.50
2023-03-22T22:32:18.496Z,6.28
2023-03-22T22:34:46.078Z,7.38
2023-03-22T22:37:19.541Z,7.53
2023-03-22T22:39:47.871Z,7.57
2023-03-22T22:42:28.396Z,6.97
2023-03-22T22:44:55.233Z,7.70
2023-03-22T22:47:29.481Z,7.30
2023-03-22T22:49:57.448Z,7.28
2023-03-22T22:52:24.589Z,7.68
2023-03-22T22:54:58.465Z,6.53
2023-03-22T22:57:25.667Z,6.68
2023-03-22T22:59:59.381Z,7.60
2023-03-22T23:02:29.105Z,6.68
2023-03-22T23:05:09.442Z,6.00
2023-03-22T23:07:37.414Z,6.63
2023-03-22T23:10:12.624Z,7.20
2023-03-22T23:12:41.161Z,6.97
2023-03-22T23:15:27.093Z,6.00
2023-03-22T23:18:03.172Z,6.90
2023-03-22T23:20:45.736Z,5.00
2023-03-22T23:23:19.298Z,4.95
2023-03-22T23:26:00.531Z,6.38
2023-03-22T23:28:34.008Z,5.45
2023-03-22T23:31:15.633Z,6.32
2023-03-22T23:33:44.294Z,6.68
2023-03-22T23:36:26.616Z,6.22
2023-03-22T23:38:56.462Z,6.20
2023-03-22T23:41:32.562Z,6.30
2023-03-22T23:44:06.695Z,5.72
2023-03-22T23:46:40.873Z,6.10
2023-03-22T23:49:08.990Z,5.63
2023-03-22T23:51:43.611Z,5.57
2023-03-22T23:54:11.215Z,5.57
2023-03-22T23:56:44.346Z,5.25
2023-03-22T23:59:12.198Z,5.35
